createdAt,value
2019-05-23T00:00:39.814Z,27.73
2019-05-23T00:03:10.987Z,30.88
2019-05-23T00:05:42.335Z,23.35
2019-05-23T00:08:13.451Z,27.98
2019-05-23T00:10:44.789Z,23.60
2019-05-23T00:13:15.872Z,24.50
2019-05-23T00:15:48.019Z,25.17
2019-05-23T00:18:21.190Z,28.40
2019-05-23T00:20:51.802Z,23.52
2019-05-23T00:23:22.303Z,23.40
2019-05-23T00:25:52.850Z,23.77
2019-05-23T00:28:22.995Z,19.00
2019-05-23T00:30:54.082Z,26.73
2019-05-23T00:33:25.156Z,20.40
2019-05-23T00:35:55.072Z,18.52
2019-05-23T00:38:24.906Z,17.48
2019-05-23T00:40:55.890Z,15.63
2019-05-23T00:43:27.662Z,15.23
2019-05-23T00:45:57.191Z,17.10
2019-05-23T00:48:27.288Z,13.43
2019-05-23T00:50:57.325Z,14.05
2019-05-23T00:53:28.382Z,16.62
2019-05-23T00:55:59.187Z,15.85
2019-05-23T00:58:30.558Z,15.60
2019-05-23T01:01:02.663Z,17.35
2019-05-23T01:03:33.537Z,15.88
2019-05-23T01:06:03.281Z,13.00
2019-05-23T01:08:33.305Z,16.12
2019-05-23T01:11:03.941Z,15.65
2019-05-23T01:13:33.918Z,14.33
2019-05-23T01:16:04.229Z,14.73
2019-05-23T01:18:35.104Z,17.10
2019-05-23T01:21:07.124Z,15.95
2019-05-23T01:23:38.957Z,17.27
2019-05-23T01:26:10.200Z,12.90
2019-05-23T01:28:40.042Z,17.42
2019-05-23T01:31:11.363Z,13.30
2019-05-23T01:33:42.465Z,16.80
2019-05-23T01:36:12.017Z,14.78
2019-05-23T01:38:42.926Z,14.90
2019-05-23T01:41:12.771Z,20.80
2019-05-23T01:43:43.466Z,12.68
2019-05-23T01:46:13.293Z,13.55
2019-05-23T01:48:43.682Z,17.42
2019-05-23T01:51:14.022Z,16.85
2019-05-23T01:53:43.469Z,18.30
2019-05-23T01:56:13.503Z,17.35
2019-05-23T01:58:42.951Z,14.83
2019-05-23T02:01:12.591Z,14.78
2019-05-23T02:03:42.443Z,15.20
2019-05-23T02:06:12.065Z,14.33
2019-05-23T02:08:41.997Z,18.20
2019-05-23T02:11:12.393Z,18.87
2019-05-23T02:13:41.905Z,19.75
2019-05-23T02:16:11.925Z,17.25
2019-05-23T02:18:42.172Z,15.95
2019-05-23T02:21:12.874Z,17.62
2019-05-23T02:23:43.385Z,16.62
2019-05-23T02:26:12.993Z,15.70
2019-05-23T02:28:43.380Z,16.85
2019-05-23T02:31:14.286Z,15.78
2019-05-23T02:33:45.135Z,15.98
2019-05-23T02:36:14.929Z,16.05
2019-05-23T02:38:46.714Z,19.32
2019-05-23T02:41:18.016Z,16.00
2019-05-23T02:43:49.934Z,18.05
2019-05-23T02:46:21.035Z,18.15
2019-05-23T02:48:52.655Z,19.90
2019-05-23T02:51:27.350Z,19.70
2019-05-23T02:53:58.597Z,18.98
2019-05-23T02:56:33.018Z,18.27
2019-05-23T02:59:07.937Z,19.50
2019-05-23T03:04:14.423Z,17.45
2019-05-23T03:06:45.436Z,19.55
2019-05-23T03:09:17.095Z,21.70
2019-05-23T03:11:49.005Z,19.35
2019-05-23T03:14:19.196Z,19.60
2019-05-23T03:16:52.994Z,24.60
2019-05-23T03:19:27.360Z,21.90
2019-05-23T03:22:00.918Z,22.37
2019-05-23T03:24:31.305Z,24.35
2019-05-23T03:27:03.701Z,23.52
2019-05-23T03:29:34.482Z,22.55
2019-05-23T03:32:05.887Z,20.75
2019-05-23T03:34:37.543Z,18.82
2019-05-23T03:37:07.974Z,22.17
2019-05-23T03:39:38.021Z,21.10
2019-05-23T03:42:08.497Z,22.13
2019-05-23T03:44:39.146Z,21.80
2019-05-23T03:47:10.807Z,19.90
2019-05-23T03:49:40.421Z,20.82
2019-05-23T03:52:11.306Z,22.75
2019-05-23T03:54:42.672Z,19.67
2019-05-23T03:57:12.142Z,18.57
2019-05-23T03:59:42.294Z,22.40
2019-05-23T04:02:13.496Z,22.15
2019-05-23T04:04:42.961Z,23.02
2019-05-23T04:07:13.947Z,26.52
2019-05-23T04:09:43.741Z,23.85
2019-05-23T04:12:13.470Z,23.00
2019-05-23T04:14:43.283Z,20.08
2019-05-23T04:17:13.215Z,23.80
2019-05-23T04:19:42.960Z,25.35
2019-05-23T04:22:12.429Z,23.87
2019-05-23T04:24:42.247Z,20.68
2019-05-23T04:27:11.888Z,22.82
2019-05-23T04:29:41.331Z,25.62
2019-05-23T04:32:11.058Z,19.05
2019-05-23T04:34:40.705Z,20.45
2019-05-23T04:37:10.204Z,21.23
2019-05-23T04:39:39.714Z,22.13
2019-05-23T04:42:09.435Z,20.68
2019-05-23T04:44:43.009Z,19.40
2019-05-23T04:47:10.684Z,21.75
2019-05-23T04:49:40.211Z,18.07
2019-05-23T04:52:10.149Z,20.57
2019-05-23T04:54:39.765Z,20.45
2019-05-23T04:57:10.287Z,19.98
2019-05-23T04:59:40.169Z,19.30
2019-05-23T05:02:24.874Z,22.07
2019-05-23T05:04:41.525Z,23.20
2019-05-23T05:07:11.138Z,21.05
2019-05-23T05:09:41.332Z,19.95
2019-05-23T05:12:12.680Z,20.97
2019-05-23T05:14:42.296Z,19.62
2019-05-23T05:17:12.078Z,19.60
2019-05-23T05:19:41.914Z,19.10
2019-05-23T05:22:13.298Z,21.33
2019-05-23T05:24:42.789Z,15.83
2019-05-23T05:27:12.607Z,20.17
2019-05-23T05:29:42.088Z,18.52
2019-05-23T05:32:11.727Z,17.42
2019-05-23T05:34:41.200Z,19.02
2019-05-23T05:37:10.653Z,18.32
2019-05-23T05:39:40.176Z,14.07
2019-05-23T05:42:09.795Z,13.83
2019-05-23T05:44:39.935Z,15.43
2019-05-23T05:47:10.337Z,13.50
2019-05-23T05:49:42.338Z,15.28
2019-05-23T05:52:12.913Z,12.98
2019-05-23T05:54:42.438Z,15.15
2019-05-23T05:57:12.007Z,15.40
2019-05-23T05:59:41.642Z,12.70
2019-05-23T06:02:12.879Z,11.65
2019-05-23T06:04:42.462Z,13.13
2019-05-23T06:07:14.609Z,15.63
2019-05-23T06:09:45.762Z,12.50
2019-05-23T06:12:15.280Z,13.58
2019-05-23T06:14:46.655Z,12.15
2019-05-23T06:17:17.818Z,11.65
2019-05-23T06:19:48.239Z,10.50
2019-05-23T06:22:18.516Z,12.80
2019-05-23T06:24:53.394Z,12.40
2019-05-23T06:27:20.351Z,9.53
2019-05-23T06:29:50.129Z,10.35
2019-05-23T06:32:21.203Z,16.05
2019-05-23T06:34:51.087Z,12.58
2019-05-23T06:37:21.168Z,13.30
2019-05-23T06:39:50.600Z,10.72
2019-05-23T06:42:20.137Z,15.28
2019-05-23T06:44:49.666Z,11.55
2019-05-23T06:47:19.294Z,12.20
2019-05-23T06:49:48.765Z,11.33
2019-05-23T06:52:18.203Z,12.18
2019-05-23T06:54:47.661Z,9.95
2019-05-23T06:57:17.454Z,10.03
2019-05-23T06:59:46.920Z,10.72
2019-05-23T07:02:16.587Z,9.45
2019-05-23T07:04:46.951Z,10.18
2019-05-23T07:07:16.556Z,11.75
2019-05-23T07:09:46.166Z,10.13
2019-05-23T07:12:15.797Z,9.23
2019-05-23T07:14:45.391Z,10.48
2019-05-23T07:17:15.624Z,11.18
2019-05-23T07:19:45.144Z,11.60
2019-05-23T07:22:18.379Z,10.48
2019-05-23T07:24:57.372Z,11.33
2019-05-23T07:27:18.755Z,12.20
2019-05-23T07:29:48.204Z,11.00
2019-05-23T07:32:17.678Z,11.00
2019-05-23T07:34:47.141Z,9.63
2019-05-23T07:37:16.910Z,14.20
2019-05-23T07:39:46.519Z,9.60
2019-05-23T07:42:16.157Z,10.13
2019-05-23T07:44:48.526Z,8.63
2019-05-23T07:47:18.734Z,13.80
2019-05-23T07:49:48.416Z,10.30
2019-05-23T07:52:18.246Z,8.48
2019-05-23T07:54:49.683Z,10.23
2019-05-23T07:57:21.391Z,11.63
2019-05-23T07:59:51.281Z,10.65
2019-05-23T08:02:26.865Z,9.18
2019-05-23T08:04:57.151Z,9.73
2019-05-23T08:07:39.707Z,12.45
2019-05-23T08:10:09.935Z,10.60
2019-05-23T08:12:39.796Z,9.25
2019-05-23T08:15:11.154Z,10.25
2019-05-23T08:17:40.681Z,8.53
2019-05-23T08:20:12.496Z,9.83
2019-05-23T08:22:42.207Z,8.38
2019-05-23T08:25:11.935Z,8.58
2019-05-23T08:27:41.471Z,10.13
2019-05-23T08:30:11.597Z,9.68
2019-05-23T08:32:41.080Z,8.43
2019-05-23T08:35:15.992Z,8.80
2019-05-23T08:37:42.201Z,6.58
2019-05-23T08:40:12.860Z,8.70
2019-05-23T08:42:42.310Z,7.50
2019-05-23T08:45:12.645Z,10.53
2019-05-23T08:47:42.148Z,7.92
2019-05-23T08:50:12.409Z,7.53
2019-05-23T08:52:42.203Z,11.50
2019-05-23T08:55:16.449Z,10.43
2019-05-23T08:57:46.717Z,10.50
2019-05-23T09:00:17.077Z,10.45
2019-05-23T09:02:48.139Z,13.13
2019-05-23T09:05:19.206Z,14.28
2019-05-23T09:07:48.772Z,11.00
2019-05-23T09:10:19.468Z,12.90
2019-05-23T09:12:49.572Z,11.73
2019-05-23T09:15:19.281Z,10.45
2019-05-23T09:17:53.396Z,12.15
2019-05-23T09:20:22.375Z,10.95
2019-05-23T09:22:51.927Z,12.50
2019-05-23T09:25:21.584Z,10.28
2019-05-23T09:27:51.713Z,10.68
2019-05-23T09:30:22.392Z,10.18
2019-05-23T09:32:52.583Z,7.70
2019-05-23T09:35:22.504Z,5.30
2019-05-23T09:37:52.010Z,6.53
2019-05-23T09:40:21.916Z,5.95
2019-05-23T09:42:51.341Z,3.33
2019-05-23T09:45:21.261Z,6.10
2019-05-23T09:47:51.618Z,7.40
2019-05-23T09:50:23.156Z,6.05
2019-05-23T09:52:52.830Z,6.00
2019-05-23T09:55:22.766Z,6.85
2019-05-23T09:57:52.206Z,6.25
2019-05-23T10:00:23.627Z,6.72
2019-05-23T10:02:53.240Z,7.20
2019-05-23T10:05:40.911Z,4.40
2019-05-23T10:07:54.098Z,4.60
2019-05-23T10:10:24.265Z,5.22
2019-05-23T10:12:53.726Z,4.65
2019-05-23T10:15:25.238Z,5.85
2019-05-23T10:17:54.866Z,3.77
2019-05-23T10:20:27.460Z,3.35
2019-05-23T10:22:56.929Z,3.55
2019-05-23T10:25:26.361Z,4.40
2019-05-23T10:27:55.977Z,4.28
2019-05-23T10:30:25.748Z,5.62
2019-05-23T10:32:55.196Z,4.42
2019-05-23T10:35:25.175Z,6.40
2019-05-23T10:37:54.657Z,4.35
2019-05-23T10:40:24.523Z,5.42
2019-05-23T10:42:54.184Z,5.80
2019-05-23T10:45:23.627Z,3.42
2019-05-23T10:47:53.265Z,5.30
2019-05-23T10:50:22.749Z,4.25
2019-05-23T10:52:52.196Z,3.15
2019-05-23T10:55:21.673Z,6.08
2019-05-23T10:57:51.278Z,6.62
2019-05-23T11:00:23.340Z,4.37
2019-05-23T11:02:52.965Z,5.97
2019-05-23T11:05:22.592Z,5.75
2019-05-23T11:07:52.340Z,6.67
2019-05-23T11:10:23.201Z,4.87
2019-05-23T11:12:52.938Z,6.00
2019-05-23T11:15:22.388Z,5.60
2019-05-23T11:17:53.808Z,5.42
2019-05-23T11:20:24.586Z,5.20
2019-05-23T11:22:54.109Z,4.95
2019-05-23T11:25:24.835Z,6.12
2019-05-23T11:27:54.347Z,4.03
2019-05-23T11:30:26.952Z,4.60
2019-05-23T11:32:56.406Z,4.47
2019-05-23T11:35:26.117Z,8.60
2019-05-23T11:37:55.647Z,5.40
2019-05-23T11:40:25.086Z,6.00
2019-05-23T11:42:54.562Z,4.55
2019-05-23T11:45:25.982Z,5.12
2019-05-23T11:47:55.438Z,4.28
2019-05-23T11:50:25.066Z,4.80
2019-05-23T11:52:56.112Z,5.15
2019-05-23T11:55:25.979Z,7.90
2019-05-23T11:57:55.485Z,5.35
2019-05-23T12:00:31.093Z,6.00
2019-05-23T12:03:01.041Z,4.87
2019-05-23T12:05:30.557Z,5.20
2019-05-23T12:07:59.975Z,9.00
2019-05-23T12:10:29.396Z,4.90
2019-05-23T12:12:59.026Z,5.22
2019-05-23T12:15:30.114Z,3.77
2019-05-23T12:17:59.797Z,3.83
2019-05-23T12:20:29.971Z,4.72
2019-05-23T12:22:59.585Z,5.20
2019-05-23T12:25:30.601Z,5.08
2019-05-23T12:28:00.193Z,3.42
2019-05-23T12:30:29.713Z,3.80
2019-05-23T12:32:59.191Z,3.67
2019-05-23T12:35:28.648Z,6.22
2019-05-23T12:38:02.003Z,4.58
2019-05-23T12:40:29.374Z,3.55
2019-05-23T12:42:58.806Z,3.37
2019-05-23T12:45:28.318Z,3.30
2019-05-23T12:47:59.471Z,5.20
2019-05-23T12:50:32.361Z,2.95
2019-05-23T12:53:02.270Z,3.58
2019-05-23T12:55:32.147Z,3.90
2019-05-23T12:58:01.687Z,3.37
2019-05-23T13:00:32.796Z,4.05
2019-05-23T13:03:02.731Z,4.15
2019-05-23T13:05:32.528Z,3.83
2019-05-23T13:08:05.945Z,5.00
2019-05-23T13:10:33.740Z,2.92
2019-05-23T13:13:03.204Z,3.50
2019-05-23T13:15:33.970Z,5.65
2019-05-23T13:18:03.571Z,3.75
2019-05-23T13:20:34.097Z,5.25
2019-05-23T13:23:04.091Z,3.05
2019-05-23T13:25:33.639Z,4.95
2019-05-23T13:28:03.093Z,3.65
2019-05-23T13:30:32.685Z,3.25
2019-05-23T13:33:03.754Z,3.55
2019-05-23T13:35:33.658Z,5.53
2019-05-23T13:38:03.294Z,4.00
2019-05-23T13:40:33.158Z,4.60
2019-05-23T13:43:06.815Z,5.92
2019-05-23T13:45:34.030Z,4.90
2019-05-23T13:48:03.509Z,5.08
2019-05-23T13:50:33.612Z,6.12
2019-05-23T13:53:04.449Z,5.72
2019-05-23T13:55:33.909Z,4.62
2019-05-23T13:58:03.378Z,6.00
2019-05-23T14:00:34.296Z,6.20
2019-05-23T14:03:04.985Z,5.97
2019-05-23T14:05:34.488Z,6.55
2019-05-23T14:08:12.454Z,5.70
2019-05-23T14:10:35.364Z,5.83
2019-05-23T14:13:04.899Z,3.45
2019-05-23T14:15:36.115Z,4.05
2019-05-23T14:18:06.337Z,6.20
2019-05-23T14:20:36.440Z,4.87
2019-05-23T14:23:07.935Z,3.42
2019-05-23T14:25:37.954Z,5.97
2019-05-23T14:28:08.777Z,5.62
2019-05-23T14:30:40.087Z,5.25
2019-05-23T14:33:11.333Z,6.20
2019-05-23T14:35:42.592Z,5.60
2019-05-23T14:38:29.703Z,5.42
2019-05-23T14:40:46.487Z,8.15
2019-05-23T14:43:18.456Z,5.40
2019-05-23T14:45:49.607Z,5.85
2019-05-23T14:48:20.762Z,6.03
2019-05-23T14:50:52.051Z,5.45
2019-05-23T14:53:23.117Z,5.50
2019-05-23T14:55:52.657Z,5.37
2019-05-23T14:58:22.225Z,7.90
2019-05-23T15:00:52.931Z,6.95
2019-05-23T15:03:23.006Z,8.03
2019-05-23T15:05:52.831Z,7.30
2019-05-23T15:08:22.343Z,7.70
2019-05-23T15:10:51.911Z,7.05
2019-05-23T15:13:21.362Z,5.37
2019-05-23T15:15:50.816Z,4.53
2019-05-23T15:18:20.292Z,5.33
2019-05-23T15:20:49.750Z,5.50
2019-05-23T15:23:19.234Z,8.40
2019-05-23T15:25:48.766Z,7.78
2019-05-23T15:28:18.225Z,8.53
2019-05-23T15:30:47.844Z,8.70
2019-05-23T15:33:17.265Z,7.83
2019-05-23T15:35:47.711Z,6.67
2019-05-23T15:38:17.331Z,6.15
2019-05-23T15:40:46.941Z,9.05
2019-05-23T15:43:16.447Z,6.62
2019-05-23T15:45:46.083Z,9.25
2019-05-23T15:48:15.884Z,9.38
2019-05-23T15:50:47.036Z,9.08
2019-05-23T15:53:18.142Z,10.58
2019-05-23T15:55:49.296Z,9.15
2019-05-23T15:58:22.228Z,5.80
2019-05-23T16:00:53.444Z,6.78
2019-05-23T16:03:31.129Z,7.85
2019-05-23T16:05:59.441Z,12.37
2019-05-23T16:08:29.059Z,6.70
2019-05-23T16:10:58.778Z,7.80
2019-05-23T16:13:28.371Z,8.05
2019-05-23T16:15:57.912Z,5.90
2019-05-23T16:18:27.653Z,7.87
2019-05-23T16:20:57.162Z,7.37
2019-05-23T16:23:26.608Z,8.58
2019-05-23T16:25:56.117Z,8.80
2019-05-23T16:28:25.643Z,9.25
2019-05-23T16:30:55.241Z,9.18
2019-05-23T16:33:24.690Z,13.08
2019-05-23T16:35:54.128Z,6.92
2019-05-23T16:38:23.627Z,8.70
2019-05-23T16:40:53.099Z,12.07
2019-05-23T16:43:22.647Z,12.98
2019-05-23T16:45:52.462Z,10.55
2019-05-23T16:48:22.079Z,9.73
2019-05-23T16:50:51.674Z,11.08
2019-05-23T16:53:21.216Z,10.35
2019-05-23T16:55:52.461Z,10.28
2019-05-23T16:58:23.649Z,11.12
2019-05-23T17:00:54.755Z,12.03
2019-05-23T17:03:25.901Z,10.03
2019-05-23T17:05:56.981Z,9.85
2019-05-23T17:08:28.338Z,10.08
2019-05-23T17:10:59.560Z,10.48
2019-05-23T17:13:30.682Z,10.75
2019-05-23T17:16:01.882Z,9.58
2019-05-23T17:18:33.004Z,11.55
2019-05-23T17:21:04.098Z,13.18
2019-05-23T17:23:35.221Z,10.75
2019-05-23T17:26:06.352Z,12.18
2019-05-23T17:28:37.875Z,10.68
2019-05-23T17:31:09.681Z,8.88
2019-05-23T17:33:39.114Z,13.13
2019-05-23T17:36:08.649Z,13.90
2019-05-23T17:38:38.113Z,10.65
2019-05-23T17:41:07.725Z,9.65
2019-05-23T17:43:37.337Z,10.63
2019-05-23T17:46:06.878Z,11.18
2019-05-23T17:48:36.327Z,21.77
2019-05-23T17:51:05.836Z,19.02
2019-05-23T17:53:35.307Z,14.90
2019-05-23T17:56:04.881Z,11.53
2019-05-23T17:58:35.000Z,13.70
2019-05-23T18:01:08.336Z,14.23
2019-05-23T18:03:38.000Z,10.98
2019-05-23T18:06:07.647Z,11.00
2019-05-23T18:11:22.382Z,13.30
2019-05-23T18:13:52.163Z,11.65
2019-05-23T18:16:21.800Z,11.73
2019-05-23T18:18:51.423Z,8.63
2019-05-23T18:21:21.804Z,10.60
2019-05-23T18:23:51.536Z,14.15
2019-05-23T18:26:21.249Z,9.00
2019-05-23T18:28:51.222Z,9.83
2019-05-23T18:31:22.757Z,8.58
2019-05-23T18:33:52.389Z,10.45
2019-05-23T18:36:21.909Z,12.80
2019-05-23T18:38:51.717Z,12.90
2019-05-23T18:41:21.224Z,11.08
2019-05-23T18:43:52.684Z,12.63
2019-05-23T18:46:24.681Z,8.45
2019-05-23T18:48:55.045Z,7.40
2019-05-23T18:51:25.222Z,7.67
2019-05-23T18:53:54.840Z,6.15
2019-05-23T18:56:24.631Z,7.30
2019-05-23T18:58:54.174Z,7.62
2019-05-23T19:01:25.735Z,6.47
2019-05-23T19:03:55.968Z,6.40
2019-05-23T19:06:25.862Z,9.13
2019-05-23T19:08:58.395Z,11.05
2019-05-23T19:11:27.823Z,8.55
2019-05-23T19:13:57.300Z,12.35
2019-05-23T19:16:28.383Z,9.95
2019-05-23T19:18:58.387Z,11.20
2019-05-23T19:21:29.183Z,8.38
2019-05-23T19:23:58.865Z,10.05
2019-05-23T19:26:28.607Z,11.43
2019-05-23T19:28:58.323Z,12.65
2019-05-23T19:31:28.152Z,9.78
2019-05-23T19:33:58.083Z,10.65
2019-05-23T19:36:27.619Z,12.07
2019-05-23T19:38:57.090Z,16.62
2019-05-23T19:41:36.695Z,8.73
2019-05-23T19:43:58.516Z,10.68
2019-05-23T19:46:28.305Z,11.20
2019-05-23T19:48:58.798Z,14.40
2019-05-23T19:51:28.481Z,11.12
2019-05-23T19:53:57.981Z,10.55
2019-05-23T19:56:27.496Z,14.90
2019-05-23T19:58:57.272Z,17.82
2019-05-23T20:01:31.791Z,9.95
2019-05-23T20:03:59.776Z,17.05
2019-05-23T20:06:29.394Z,9.90
2019-05-23T20:09:00.017Z,17.80
2019-05-23T20:11:29.847Z,12.13
2019-05-23T20:13:59.298Z,11.08
2019-05-23T20:16:28.828Z,13.00
2019-05-23T20:18:58.274Z,13.00
2019-05-23T20:21:27.806Z,10.08
2019-05-23T20:23:57.442Z,9.78
2019-05-23T20:26:26.878Z,10.15
2019-05-23T20:28:56.317Z,15.03
2019-05-23T20:31:25.777Z,17.80
2019-05-23T20:33:55.298Z,11.50
2019-05-23T20:36:24.839Z,17.20
2019-05-23T20:38:54.538Z,13.88
2019-05-23T20:41:23.970Z,14.90
2019-05-23T20:43:53.467Z,15.43
2019-05-23T20:46:23.268Z,12.80
2019-05-23T20:48:52.730Z,12.78
2019-05-23T20:51:22.356Z,12.33
2019-05-23T20:53:51.969Z,14.93
2019-05-23T20:56:21.624Z,12.23
2019-05-23T20:58:51.084Z,16.70
2019-05-23T21:01:22.165Z,15.13
2019-05-23T21:03:52.777Z,16.70
2019-05-23T21:06:22.225Z,13.30
2019-05-23T21:08:51.680Z,19.00
2019-05-23T21:11:22.072Z,15.32
2019-05-23T21:13:51.562Z,18.73
2019-05-23T21:16:20.985Z,17.85
2019-05-23T21:18:50.576Z,16.00
2019-05-23T21:21:20.216Z,15.43
2019-05-23T21:23:50.040Z,17.25
2019-05-23T21:26:19.680Z,13.85
2019-05-23T21:28:49.159Z,16.73
2019-05-23T21:31:20.257Z,15.28
2019-05-23T21:33:49.889Z,19.65
2019-05-23T21:36:19.376Z,18.80
2019-05-23T21:38:49.121Z,18.27
2019-05-23T21:41:18.633Z,22.37
2019-05-23T21:43:49.734Z,19.10
2019-05-23T21:46:19.433Z,16.27
2019-05-23T21:48:48.898Z,15.60
2019-05-23T21:51:18.404Z,18.82
2019-05-23T21:53:47.939Z,17.15
2019-05-23T21:56:17.419Z,19.30
2019-05-23T21:58:46.882Z,20.55
2019-05-23T22:01:20.972Z,20.25
2019-05-23T22:03:52.065Z,20.17
2019-05-23T22:06:25.268Z,22.35
2019-05-23T22:08:55.507Z,18.57
2019-05-23T22:11:25.180Z,20.45
2019-05-23T22:13:54.636Z,20.75
2019-05-23T22:16:24.453Z,22.87
2019-05-23T22:18:54.002Z,24.57
2019-05-23T22:21:23.480Z,24.90
2019-05-23T22:23:52.926Z,19.85
2019-05-23T22:26:22.775Z,16.77
2019-05-23T22:28:52.240Z,19.73
2019-05-23T22:31:22.356Z,24.02
2019-05-23T22:33:53.441Z,20.72
2019-05-23T22:36:24.095Z,19.85
2019-05-23T22:38:53.615Z,23.40
2019-05-23T22:41:23.294Z,21.30
2019-05-23T22:43:52.918Z,19.80
2019-05-23T22:46:24.017Z,22.20
2019-05-23T22:48:53.478Z,25.35
2019-05-23T22:51:22.919Z,20.35
2019-05-23T22:53:52.461Z,21.45
2019-05-23T22:56:21.923Z,22.00
2019-05-23T22:58:51.361Z,29.12
2019-05-23T23:01:22.450Z,27.30
2019-05-23T23:03:51.888Z,24.27
2019-05-23T23:06:21.570Z,22.17
2019-05-23T23:08:51.025Z,22.07
2019-05-23T23:11:20.472Z,20.48
2019-05-23T23:13:49.956Z,21.65
2019-05-23T23:16:19.385Z,22.87
2019-05-23T23:18:48.914Z,22.80
2019-05-23T23:21:18.355Z,24.92
2019-05-23T23:23:49.347Z,25.55
2019-05-23T23:26:18.819Z,22.10
2019-05-23T23:28:48.259Z,25.25
2019-05-23T23:31:17.768Z,25.50
2019-05-23T23:33:47.221Z,29.95
2019-05-23T23:36:16.670Z,27.22
2019-05-23T23:38:46.195Z,28.25
2019-05-23T23:41:15.659Z,25.97
2019-05-23T23:43:58.603Z,26.45
2019-05-23T23:46:18.115Z,23.60
2019-05-23T23:48:49.222Z,20.65
2019-05-23T23:51:20.300Z,24.55
2019-05-23T23:53:51.391Z,28.25
2019-05-23T23:56:22.547Z,27.30
2019-05-23T23:58:51.810Z,20.97
